Main page
METAR-TAF:

METAR-TAF

Airports :

Tolmachevo Airport

Novosibirsk, Russia

latitude: 55-01N, longitude: 082-38E, elevation: 111 m

Current weather observation

The report was made 37 minutes ago, at 23:30 UTC
Wind 4 kt from the East, varying between East/Northeast and Southeast
Temperature 17°C
Humidity 88%
Pressure 1002 hPa
Visibility 10 km or more
Scattered clouds at a height of 6000 ft, Cumulonimbus.

METAR: UNNT 172330Z 08002MPS 060V130 9999 SCT060CB 17/15 Q1002 R07/090070 R34/090070 NOSIG RMK QFE742/0989

Time: 07:07 (00:07 UTC)

Forecast

The report was made 1 hour and 7 minutes ago, at 23:00 UTC
Forecast valid from 18 at 00 UTC to 18 at 24 UTC
Wind 6 kt from the East with gusts up to 16 kt
Visibility 10 km or more
Scattered clouds at a height of 4000 ft, Cumulonimbus.
Temporary
from 18 at 00 UTC to 18 at 24 UTC
thunderstorm, light rain

TAF: UNNT 172300Z 1800/1824 08003G08MPS 9999 SCT040CB TEMPO 1800/1824 -TSRA

Weather observations and forecasts of more than 4000 airports (METAR and TAF reports).

The available stations are represented by yellow and red dots on the map.

Hover mouse over dot to see the name of the station.

Then click to see weather observations and forecasts.

To change the map : click on the green buttons with a black cross to zoom in, on the green button with a dash to zoom out, or on the green arrows for adjacent maps.


METAR-TAF: